Time;durP1;ratioP1;P1;durP2;ratioP2;P2;SDS_P1;SDS_P2;PMS_P1;PMS_P2;Temp;Humidity;BMP_temperature;BMP_pressure;BME280_temperature;BME280_humidity;BME280_pressure;Samples;Min_cycle;Max_cycle;Signal;HPM_P1;HPM_P2
2023/09/20 00:02:41;;;;;;;11.90;4.80;;;;;;;13.05;95.60;100171.00;214632;1286;141524;-85
2023/09/20 00:07:42;;;;;;;12.00;4.90;;;;;;;13.05;95.42;100170.20;215001;1288;96577;-86
2023/09/20 00:12:44;;;;;;;15.30;5.60;;;;;;;13.05;95.47;100172.10;213885;1288;141030;-86
2023/09/20 00:17:44;;;;;;;10.70;4.30;;;;;;;13.04;95.61;100173.92;214240;1288;139060;-87
2023/09/20 00:22:45;;;;;;;11.10;4.90;;;;;;;13.03;95.62;100171.23;213726;1287;141019;-86
2023/09/20 00:27:46;;;;;;;10.50;5.00;;;;;;;13.02;95.64;100172.59;214262;1288;138878;-86
2023/09/20 00:32:46;;;;;;;14.80;6.00;;;;;;;12.98;96.12;100175.45;213628;1287;140615;-87
2023/09/20 00:37:48;;;;;;;12.50;4.80;;;;;;;12.94;96.19;100175.89;214635;1286;96626;-87
2023/09/20 00:42:50;;;;;;;10.50;4.70;;;;;;;12.92;96.58;100177.55;213711;1287;139969;-87
2023/09/20 00:47:56;;;;;;;13.00;5.30;;;;;;;12.86;96.71;100176.23;214337;1286;138595;-86
2023/09/20 00:53:05;;;;;;;13.00;5.30;;;;;;;12.82;97.07;100175.52;213716;1290;141206;-87
2023/09/20 00:58:12;;;;;;;13.00;5.10;;;;;;;12.80;97.36;100173.80;214517;1289;139307;-86
2023/09/20 01:03:18;;;;;;;12.60;5.00;;;;;;;12.79;97.51;100173.16;213815;1287;140776;-86
2023/09/20 01:08:20;;;;;;;14.20;5.00;;;;;;;12.78;97.41;100179.01;214516;1287;138704;-87
2023/09/20 01:13:21;;;;;;;12.30;5.10;;;;;;;12.76;97.45;100183.89;214221;1287;140762;-87
2023/09/20 01:18:22;;;;;;;11.40;4.80;;;;;;;12.72;97.67;100180.04;214262;1286;138463;-85
2023/09/20 01:23:22;;;;;;;13.70;6.00;;;;;;;12.69;97.95;100179.09;214401;1287;141142;-86
2023/09/20 01:28:26;;;;;;;12.60;6.20;;;;;;;12.66;98.27;100177.69;214320;1286;138635;-86
2023/09/20 01:33:26;;;;;;;15.20;7.40;;;;;;;12.65;98.30;100173.20;213788;1285;140753;-87
2023/09/20 01:38:26;;;;;;;14.00;5.60;;;;;;;12.63;98.75;100170.04;214609;1285;138928;-89
2023/09/20 01:43:27;;;;;;;12.30;5.80;;;;;;;12.62;98.90;100167.67;213802;1287;140580;-87
2023/09/20 01:48:27;;;;;;;13.00;5.70;;;;;;;12.61;99.32;100164.28;214769;1287;138756;-87
2023/09/20 01:53:28;;;;;;;10.60;5.40;;;;;;;12.60;99.27;100159.07;214416;1286;140974;-86
2023/09/20 01:58:28;;;;;;;11.60;6.10;;;;;;;12.58;99.43;100167.90;214930;1285;138886;-86
2023/09/20 02:03:31;;;;;;;13.70;5.70;;;;;;;12.54;99.62;100164.45;213812;1287;140905;-85
2023/09/20 02:08:32;;;;;;;13.90;5.50;;;;;;;12.51;99.86;100164.84;214314;1290;139624;-86
2023/09/20 02:13:32;;;;;;;11.80;5.10;;;;;;;12.49;99.90;100168.70;214091;1286;141624;-86
2023/09/20 02:18:33;;;;;;;12.30;5.80;;;;;;;12.46;99.90;100171.30;214229;1287;139086;-86
2023/09/20 02:23:33;;;;;;;10.60;5.00;;;;;;;12.43;99.93;100176.20;213743;1288;145532;-87
2023/09/20 02:28:34;;;;;;;9.60;4.70;;;;;;;12.40;100.00;100176.76;214366;1287;139790;-86
2023/09/20 02:33:34;;;;;;;13.10;5.10;;;;;;;12.38;100.00;100175.81;213882;1286;140710;-86
2023/09/20 02:38:37;;;;;;;11.70;5.70;;;;;;;12.35;100.00;100172.81;214528;1288;139145;-86
2023/09/20 02:43:38;;;;;;;11.20;5.10;;;;;;;12.33;100.00;100172.89;214491;1291;140533;-86
2023/09/20 02:48:38;;;;;;;10.90;5.10;;;;;;;12.32;100.00;100177.87;214262;1287;138841;-86
2023/09/20 02:53:39;;;;;;;13.20;5.30;;;;;;;12.29;100.00;100176.59;213771;1286;141669;-86
2023/09/20 02:58:39;;;;;;;11.90;5.90;;;;;;;12.26;100.00;100175.50;214624;1287;139479;-86
2023/09/20 03:03:40;;;;;;;12.60;5.10;;;;;;;12.24;100.00;100172.49;213818;1288;141651;-87
2023/09/20 03:08:44;;;;;;;9.60;5.20;;;;;;;12.23;100.00;100168.56;214271;1286;139920;-86
2023/09/20 03:13:44;;;;;;;13.60;6.00;;;;;;;12.22;100.00;100168.72;213930;1287;140740;-88
2023/09/20 03:18:51;;;;;;;13.20;4.80;;;;;;;12.22;100.00;100171.23;214229;1287;139408;-86
2023/09/20 03:23:52;;;;;;;13.40;5.20;;;;;;;12.22;100.00;100173.05;213648;1287;140537;-86
2023/09/20 03:28:56;;;;;;;14.30;5.30;;;;;;;12.22;100.00;100169.65;214379;1286;138850;-86
2023/09/20 03:33:59;;;;;;;9.70;4.60;;;;;;;12.23;100.00;100166.52;213817;1287;140821;-86
2023/09/20 03:38:59;;;;;;;10.50;4.60;;;;;;;12.23;100.00;100164.06;214564;1287;138707;-87
2023/09/20 03:44:00;;;;;;;11.10;4.40;;;;;;;12.20;100.00;100162.57;214097;1288;141971;-86
2023/09/20 03:49:00;;;;;;;10.90;4.80;;;;;;;12.17;100.00;100165.02;214830;1286;139375;-87
2023/09/20 03:54:01;;;;;;;14.40;5.30;;;;;;;12.17;100.00;100176.83;214088;1287;139484;-86
2023/09/20 03:59:01;;;;;;;11.50;5.40;;;;;;;12.16;100.00;100169.97;214756;1288;139933;-86
2023/09/20 04:04:03;;;;;;;11.20;4.70;;;;;;;12.12;100.00;100169.27;214325;1285;139972;-85
2023/09/20 04:09:10;;;;;;;10.80;5.20;;;;;;;12.10;100.00;100174.14;214590;1288;138864;-85
2023/09/20 04:14:11;;;;;;;10.80;4.50;;;;;;;12.08;100.00;100178.31;213813;1287;139799;-86
2023/09/20 04:19:11;;;;;;;11.80;4.50;;;;;;;12.04;100.00;100184.78;213956;1286;141298;-86
2023/09/20 04:24:12;;;;;;;12.20;5.10;;;;;;;12.02;100.00;100188.95;214165;1286;138773;-87
2023/09/20 04:29:12;;;;;;;13.80;4.90;;;;;;;12.02;100.00;100186.90;213551;1286;141993;-87
2023/09/20 04:34:13;;;;;;;12.40;4.90;;;;;;;12.02;100.00;100190.69;214174;1286;138844;-86
2023/09/20 04:39:14;;;;;;;10.60;4.50;;;;;;;12.00;100.00;100187.94;213718;1288;141562;-87
2023/09/20 04:44:15;;;;;;;12.70;5.30;;;;;;;11.98;100.00;100184.14;214492;1287;138926;-87
2023/09/20 04:49:19;;;;;;;10.30;5.00;;;;;;;11.97;100.00;100187.91;214078;1288;141239;-87
2023/09/20 04:54:23;;;;;;;12.70;5.00;;;;;;;11.98;100.00;100191.39;214283;1288;139080;-87
2023/09/20 04:59:23;;;;;;;14.10;5.40;;;;;;;12.01;100.00;100188.80;213774;1286;140991;-86
2023/09/20 05:04:24;;;;;;;13.80;5.10;;;;;;;12.05;100.00;100192.98;214534;1286;138800;-88
2023/09/20 05:09:24;;;;;;;12.20;4.90;;;;;;;12.10;100.00;100189.91;214094;1287;141555;-87
2023/09/20 05:14:25;;;;;;;11.00;5.00;;;;;;;12.17;100.00;100188.34;215165;1286;141123;-88
2023/09/20 05:19:25;;;;;;;11.70;5.10;;;;;;;12.24;100.00;100188.52;214790;1286;141827;-87
2023/09/20 05:24:26;;;;;;;10.00;4.90;;;;;;;12.34;100.00;100188.02;215236;1286;138731;-87
2023/09/20 05:29:26;;;;;;;9.00;4.60;;;;;;;12.43;100.00;100193.95;214900;1286;140262;-87
2023/09/20 05:34:28;;;;;;;11.80;4.70;;;;;;;12.52;100.00;100200.17;214614;1287;139115;-88
2023/09/20 05:39:30;;;;;;;11.80;5.30;;;;;;;12.62;100.00;100204.83;214019;1287;141511;-87
2023/09/20 05:44:31;;;;;;;10.40;4.70;;;;;;;12.75;100.00;100204.49;215348;1285;140457;-88
2023/09/20 05:49:31;;;;;;;9.60;4.40;;;;;;;12.88;100.00;100200.21;214483;1285;140867;-88
2023/09/20 05:54:32;;;;;;;14.30;5.20;;;;;;;13.02;100.00;100206.60;215059;1285;138814;-89
2023/09/20 05:59:33;;;;;;;13.90;5.00;;;;;;;13.17;100.00;100209.88;214375;1288;140930;-88
2023/09/20 06:04:35;;;;;;;11.00;4.00;;;;;;;13.32;100.00;100217.17;214373;1287;138883;-88
2023/09/20 06:09:36;;;;;;;10.80;4.90;;;;;;;13.47;100.00;100214.02;214152;1288;140746;-87
2023/09/20 06:14:36;;;;;;;8.30;4.20;;;;;;;13.63;100.00;100218.31;214634;1287;138911;-87
2023/09/20 06:19:38;;;;;;;10.40;4.50;;;;;;;13.79;100.00;100221.47;214130;1290;140514;-89
2023/09/20 06:24:38;;;;;;;13.20;5.10;;;;;;;13.95;100.00;100213.01;214798;1286;138711;-88
2023/09/20 06:29:38;;;;;;;11.10;4.30;;;;;;;14.11;100.00;100217.71;214410;1287;140821;-87
2023/09/20 06:34:39;;;;;;;13.30;4.30;;;;;;;14.27;100.00;100224.75;215238;1287;138816;-86
2023/09/20 06:39:43;;;;;;;9.90;3.80;;;;;;;14.41;100.00;100230.91;214237;1287;141136;-90
2023/09/20 06:44:44;;;;;;;12.40;4.30;;;;;;;14.57;100.00;100231.02;214816;1286;138703;-88
2023/09/20 06:49:45;;;;;;;11.40;4.10;;;;;;;14.73;99.87;100235.31;214536;1288;142758;-90
2023/09/20 06:54:48;;;;;;;8.60;3.70;;;;;;;14.89;99.41;100235.40;214718;1286;139025;-87
2023/09/20 06:59:52;;;;;;;14.90;4.10;;;;;;;15.06;99.40;100241.09;214643;1287;140029;-89
2023/09/20 07:04:55;;;;;;;18.00;3.60;;;;;;;15.25;98.85;100245.56;214752;1287;139531;-89
2023/09/20 07:10:00;;;;;;;6.70;2.90;;;;;;;15.46;97.75;100249.01;213954;1290;140189;-87
2023/09/20 07:15:00;;;;;;;6.30;3.00;;;;;;;15.64;97.41;100247.10;214631;1288;138977;-88
2023/09/20 07:20:08;;;;;;;8.70;3.50;;;;;;;15.77;96.54;100252.35;214307;1288;141966;-88
2023/09/20 07:25:16;;;;;;;12.90;3.90;;;;;;;15.90;96.06;100254.23;214550;1287;111967;-87
2023/09/20 07:30:58;;;;;;;8.40;3.10;;;;;;;16.08;95.58;100252.48;214079;1290;141367;-87
2023/09/20 07:36:00;;;;;;;8.20;2.70;;;;;;;16.31;94.67;100256.52;214745;1286;138936;-88
2023/09/20 07:41:17;;;;;;;9.80;3.30;;;;;;;16.52;94.30;100257.96;214146;1290;139812;-87
2023/09/20 07:46:20;;;;;;;10.20;3.10;;;;;;;16.77;94.16;100253.88;214923;1290;139669;-87
2023/09/20 07:51:20;;;;;;;10.40;3.10;;;;;;;17.10;93.37;100256.02;214268;1287;141121;-86
2023/09/20 07:56:22;;;;;;;9.70;3.30;;;;;;;17.48;92.85;100259.92;214433;1288;139016;-85
2023/09/20 08:01:24;;;;;;;8.30;2.70;;;;;;;17.80;90.26;100264.29;214572;1286;142384;-85
2023/09/20 08:06:29;;;;;;;9.60;2.80;;;;;;;18.04;89.38;100264.17;214936;1287;138838;-89
2023/09/20 08:11:31;;;;;;;10.00;3.60;;;;;;;18.37;88.47;100264.95;214215;1286;141575;-87
2023/09/20 08:16:33;;;;;;;8.10;2.40;;;;;;;18.70;87.59;100258.17;214843;1287;139228;-87
2023/09/20 08:21:34;;;;;;;9.40;2.80;;;;;;;19.04;86.19;100255.50;214540;1288;140527;-85
2023/09/20 09:04:12;;;;;;;6.00;2.60;;;;;;;21.31;75.76;100265.48;214827;1290;140536;-86
2023/09/20 09:09:21;;;;;;;9.00;2.70;;;;;;;21.52;74.03;100263.27;214575;1290;141131;-87
2023/09/20 09:14:22;;;;;;;8.10;2.90;;;;;;;21.86;74.08;100263.27;214787;1290;139614;-88
2023/09/20 09:19:22;;;;;;;47.20;5.80;;;;;;;22.19;74.04;100267.89;214275;1290;141439;-88
2023/09/20 09:24:23;;;;;;;12.70;2.40;;;;;;;22.73;73.09;100270.41;214437;1290;138177;-89
2023/09/20 09:29:23;;;;;;;10.10;4.20;;;;;;;23.19;70.53;100263.17;213913;1288;141071;-88
2023/09/20 09:34:23;;;;;;;6.70;2.30;;;;;;;23.27;67.41;100262.44;214406;1290;139454;-87
2023/09/20 09:39:25;;;;;;;7.30;2.50;;;;;;;23.39;66.53;100260.48;214020;1290;138723;-87
2023/09/20 09:44:25;;;;;;;9.90;3.10;;;;;;;23.46;65.58;100253.73;214469;1290;138777;-86
2023/09/20 09:49:26;;;;;;;6.70;2.40;;;;;;;23.54;66.07;100247.73;214070;1292;139968;-87
2023/09/20 09:54:28;;;;;;;9.00;3.10;;;;;;;23.71;65.76;100248.77;214416;1289;137802;-87
2023/09/20 09:59:29;;;;;;;5.60;2.10;;;;;;;23.88;65.47;100246.23;213702;1291;139823;-88
2023/09/20 10:04:32;;;;;;;7.90;2.40;;;;;;;24.07;63.88;100246.62;214288;1290;138569;-86
2023/09/20 10:09:37;;;;;;;6.00;2.40;;;;;;;24.18;63.93;100247.12;213882;1287;139432;-87
2023/09/20 10:14:39;;;;;;;6.60;2.60;;;;;;;24.43;62.90;100243.44;214452;1287;138075;-87
2023/09/20 10:19:39;;;;;;;16.40;2.50;;;;;;;24.49;61.94;100240.78;214050;1291;140467;-86
2023/09/20 10:24:53;;;;;;;7.80;2.10;;;;;;;24.48;61.08;100233.45;214414;1288;138266;-88
2023/09/20 10:30:09;;;;;;;8.00;2.20;;;;;;;24.68;61.58;100233.03;213820;1287;139754;-87
2023/09/20 10:35:19;;;;;;;;;;;;;;;24.91;60.66;100235.35;214340;1290;138852;-86
2023/09/20 10:40:19;;;;;;;6.60;2.10;;;;;;;25.08;59.67;100233.09;213762;1290;126036;-87
2023/09/20 10:45:21;;;;;;;6.50;2.10;;;;;;;25.13;59.73;100231.38;214256;1286;138346;-86
2023/09/20 10:50:46;;;;;;;7.00;2.20;;;;;;;25.24;58.96;100229.20;213992;1288;139703;-86
2023/09/20 10:55:47;;;;;;;9.10;2.10;;;;;;;25.33;58.55;100226.39;214678;1290;111640;-86
2023/09/20 11:00:50;;;;;;;6.10;1.80;;;;;;;25.21;58.50;100225.34;213608;1290;284980;-86
2023/09/20 11:05:52;;;;;;;4.80;1.80;;;;;;;25.14;58.01;100224.89;214644;1290;138234;-84
2023/09/20 11:10:53;;;;;;;6.50;1.80;;;;;;;25.06;58.40;100226.41;213849;1291;140072;-86
2023/09/20 11:15:55;;;;;;;8.80;2.00;;;;;;;24.91;58.79;100217.49;214250;1288;138069;-85
2023/09/20 11:20:57;;;;;;;20.80;3.30;;;;;;;24.96;59.91;100207.09;213789;1288;139746;-84
2023/09/20 11:25:58;;;;;;;5.20;1.90;;;;;;;25.16;59.55;100199.69;214312;1291;97935;-85
2023/09/20 11:30:59;;;;;;;8.70;2.00;;;;;;;25.00;58.61;100202.46;213790;1290;140157;-87
2023/09/20 11:36:00;;;;;;;5.50;1.40;;;;;;;24.58;58.71;100198.16;214372;1292;138117;-85
2023/09/20 11:41:02;;;;;;;13.60;2.20;;;;;;;24.35;60.01;100191.89;213944;1286;142021;-85
2023/09/20 11:46:09;;;;;;;5.70;2.20;;;;;;;24.27;60.30;100193.48;214210;1290;138388;-88
2023/09/20 11:51:11;;;;;;;25.30;2.90;;;;;;;24.11;60.71;100186.55;213834;1290;140537;-85
2023/09/20 11:56:11;;;;;;;6.10;1.70;;;;;;;24.10;61.97;100186.48;214552;1290;97924;-87
2023/09/20 12:01:13;;;;;;;4.60;1.50;;;;;;;24.19;61.95;100188.42;213819;1290;140070;-87
2023/09/20 12:06:14;;;;;;;4.90;1.50;;;;;;;24.16;61.12;100185.34;214227;1291;138476;-85
2023/09/20 12:11:14;;;;;;;5.80;1.40;;;;;;;24.05;61.60;100179.70;214020;1287;141028;-86
2023/09/20 12:16:18;;;;;;;6.30;1.70;;;;;;;24.01;62.24;100172.34;214321;1292;138747;-86
2023/09/20 12:21:18;;;;;;;3.70;1.40;;;;;;;24.07;62.40;100164.89;214110;1290;140070;-86
2023/09/20 12:26:19;;;;;;;5.00;1.60;;;;;;;24.06;61.73;100170.08;214443;1291;98357;-86
2023/09/20 12:31:23;;;;;;;8.30;1.90;;;;;;;24.05;61.97;100166.86;213699;1286;140520;-85
2023/09/20 12:36:24;;;;;;;6.80;2.10;;;;;;;24.02;62.11;100164.10;214271;1290;137860;-85
2023/09/20 12:41:25;;;;;;;8.10;1.80;;;;;;;24.01;61.90;100162.45;213747;1286;140367;-86
2023/09/20 12:46:26;;;;;;;6.70;1.50;;;;;;;24.00;61.72;100163.34;214391;1289;138177;-86
2023/09/20 12:51:26;;;;;;;2.60;1.10;;;;;;;24.01;62.04;100155.14;213819;1291;139268;-87
2023/09/20 12:56:30;;;;;;;3.70;1.10;;;;;;;24.08;61.41;100150.80;215078;1286;99267;-85
2023/09/20 13:01:31;;;;;;;4.90;1.80;;;;;;;24.10;61.66;100144.58;213936;1292;139544;-85
2023/09/20 13:06:36;;;;;;;3.80;1.40;;;;;;;24.23;61.86;100137.29;214365;1292;138473;-85
2023/09/20 13:11:39;;;;;;;6.00;1.80;;;;;;;24.37;61.62;100131.02;213757;1291;140595;-86
2023/09/20 13:16:40;;;;;;;12.20;2.80;;;;;;;24.43;60.70;100133.20;214358;1291;137960;-84
2023/09/20 13:21:41;;;;;;;17.70;4.20;;;;;;;24.45;60.71;100131.45;213826;1292;139738;-86
2023/09/20 13:26:43;;;;;;;7.30;1.70;;;;;;;24.43;60.85;100128.33;214452;1300;98590;-87
2023/09/20 13:31:44;;;;;;;4.40;1.40;;;;;;;24.46;60.57;100125.60;213812;1292;140082;-85
2023/09/20 13:36:44;;;;;;;4.10;1.50;;;;;;;24.41;60.30;100127.46;214510;1292;138606;-86
2023/09/20 13:41:45;;;;;;;6.20;1.20;;;;;;;24.35;60.49;100126.98;213864;1290;140047;-84
2023/09/20 13:46:47;;;;;;;3.40;1.30;;;;;;;24.32;60.44;100128.14;214468;1290;137944;-86
2023/09/20 13:51:47;;;;;;;7.30;1.70;;;;;;;24.34;60.10;100127.11;213812;1289;139665;-84
2023/09/20 13:56:48;;;;;;;2.40;0.90;;;;;;;24.30;59.77;100127.27;214384;1289;138010;-85
2023/09/20 14:01:49;;;;;;;5.20;1.30;;;;;;;24.22;59.77;100122.45;213818;1290;140539;-85
2023/09/20 14:06:49;;;;;;;5.30;1.30;;;;;;;24.15;60.09;100114.41;214615;1288;138104;-85
2023/09/20 14:11:50;;;;;;;6.70;1.70;;;;;;;24.13;60.23;100118.25;214318;1287;139174;-84
2023/09/20 14:16:52;;;;;;;7.50;1.80;;;;;;;24.06;60.58;100110.97;215398;1290;138623;-85
2023/09/20 14:21:53;;;;;;;5.10;1.50;;;;;;;23.98;61.05;100110.83;214265;1286;140549;-86
2023/09/20 14:26:55;;;;;;;6.90;1.50;;;;;;;23.92;61.47;100107.63;214633;1290;138597;-87
2023/09/20 14:31:57;;;;;;;5.00;1.90;;;;;;;23.89;61.33;100108.52;214054;1288;141030;-85
2023/09/20 14:36:58;;;;;;;4.40;1.50;;;;;;;23.80;61.46;100099.13;214716;1293;138433;-84
2023/09/20 14:41:58;;;;;;;7.80;1.60;;;;;;;23.74;61.62;100095.31;213315;1286;140260;-86
2023/09/20 14:47:00;;;;;;;5.40;1.60;;;;;;;23.70;62.05;100092.04;214364;1290;137965;-84
2023/09/20 14:52:01;;;;;;;5.50;1.90;;;;;;;23.65;62.13;100091.56;213808;1293;140898;-85
2023/09/20 14:57:02;;;;;;;8.30;2.00;;;;;;;23.61;62.28;100094.33;214272;1289;138106;-84
2023/09/20 15:02:05;;;;;;;7.40;1.50;;;;;;;23.58;62.62;100100.11;213348;1286;139702;-84
2023/09/20 15:07:05;;;;;;;8.30;1.80;;;;;;;23.49;62.05;100100.77;214641;1287;138844;-84
2023/09/20 15:12:06;;;;;;;4.70;1.70;;;;;;;23.39;62.25;100098.05;213862;1288;139398;-87
2023/09/20 15:17:06;;;;;;;5.00;1.90;;;;;;;23.30;62.37;100100.15;214582;1292;138436;-86
2023/09/20 15:22:07;;;;;;;6.30;1.90;;;;;;;23.22;62.55;100095.37;214025;1290;140146;-86
2023/09/20 15:27:09;;;;;;;3.50;1.50;;;;;;;23.15;62.94;100096.63;214614;1290;138461;-86
2023/09/20 15:32:11;;;;;;;5.60;1.40;;;;;;;23.07;63.17;100101.51;214306;1286;140526;-86
2023/09/20 15:37:15;;;;;;;23.20;2.70;;;;;;;22.99;63.52;100104.20;214406;1290;138814;-86
2023/09/20 15:42:16;;;;;;;7.40;2.00;;;;;;;22.92;63.76;100108.17;213970;1286;139233;-86
2023/09/20 15:47:21;;;;;;;6.10;2.00;;;;;;;22.86;64.27;100106.28;214469;1287;138121;-85
2023/09/20 15:52:21;;;;;;;5.70;1.70;;;;;;;22.79;64.45;100105.71;213551;1287;139616;-86
2023/09/20 15:57:23;;;;;;;4.60;1.70;;;;;;;22.73;64.44;100105.19;214365;1287;138613;-85
2023/09/20 16:02:27;;;;;;;4.30;1.50;;;;;;;22.66;64.80;100109.48;213937;1287;140149;-86
2023/09/20 16:07:27;;;;;;;8.80;1.80;;;;;;;22.60;64.93;100107.77;214272;1292;138469;-85
2023/09/20 16:12:28;;;;;;;4.00;1.60;;;;;;;22.53;65.37;100107.73;213885;1289;140065;-86
2023/09/20 16:17:28;;;;;;;6.50;1.90;;;;;;;22.46;65.50;100107.48;214288;1286;138015;-86
2023/09/20 16:22:29;;;;;;;8.50;2.30;;;;;;;22.40;65.82;100105.96;213867;1286;140447;-87
2023/09/20 16:27:29;;;;;;;6.90;2.20;;;;;;;22.31;66.45;100103.14;214209;1293;138070;-86
2023/09/20 16:32:30;;;;;;;4.80;1.90;;;;;;;22.20;66.68;100104.30;213735;1288;143291;-86
2023/09/20 16:37:31;;;;;;;4.60;1.90;;;;;;;22.11;66.96;100103.80;214457;1286;138303;-86
2023/09/20 16:42:31;;;;;;;9.10;3.20;;;;;;;22.02;67.55;100099.85;213829;1290;140683;-85
2023/09/20 16:47:32;;;;;;;5.20;1.90;;;;;;;21.92;69.04;100106.83;214937;1286;137982;-86
2023/09/20 16:52:33;;;;;;;6.80;2.10;;;;;;;21.77;69.42;100107.51;214182;1286;140172;-85
2023/09/20 16:57:33;;;;;;;4.10;1.90;;;;;;;21.62;70.92;100103.02;214348;1286;137972;-86
2023/09/20 17:02:34;;;;;;;3.60;1.60;;;;;;;21.43;71.54;100104.73;213903;1286;140032;-86
2023/09/20 17:07:36;;;;;;;6.70;2.10;;;;;;;21.26;72.54;100103.47;214343;1286;138107;-86
2023/09/20 17:12:37;;;;;;;7.60;3.00;;;;;;;21.02;73.71;100100.61;213989;1288;140458;-86
2023/09/20 17:17:37;;;;;;;9.20;2.20;;;;;;;20.80;74.80;100102.48;214554;1286;138397;-86
2023/09/20 17:22:39;;;;;;;7.50;2.80;;;;;;;20.57;75.91;100105.07;214000;1287;141454;-86
2023/09/20 17:27:45;;;;;;;8.50;2.60;;;;;;;20.33;76.90;100102.07;214564;1286;139163;-87
2023/09/20 17:32:47;;;;;;;6.90;2.90;;;;;;;20.14;77.60;100105.74;214303;1286;140492;-88
2023/09/20 17:37:48;;;;;;;8.50;2.60;;;;;;;19.97;78.63;100103.96;214455;1287;99144;-88
2023/09/20 17:42:49;;;;;;;9.10;3.70;;;;;;;19.74;79.48;100098.32;214039;1287;140707;-86
2023/09/20 17:47:49;;;;;;;13.10;3.40;;;;;;;19.55;80.09;100103.29;214441;1288;138975;-88
2023/09/20 17:52:50;;;;;;;13.90;4.00;;;;;;;19.41;80.76;100108.44;214069;1287;140838;-88
2023/09/20 17:57:51;;;;;;;11.00;3.50;;;;;;;19.30;81.63;100101.25;214766;1286;140691;-88
2023/09/20 18:02:52;;;;;;;17.50;4.30;;;;;;;19.12;82.17;100107.52;214255;1290;141562;-88
2023/09/20 18:07:52;;;;;;;20.90;4.40;;;;;;;18.95;83.39;100106.89;214962;1286;99342;-88
2023/09/20 18:12:53;;;;;;;17.60;4.10;;;;;;;18.76;84.25;100114.73;214233;1287;142039;-88
2023/09/20 18:17:54;;;;;;;17.40;4.80;;;;;;;18.60;85.30;100115.80;214527;1286;139306;-89
2023/09/20 18:22:55;;;;;;;20.20;5.00;;;;;;;18.45;86.12;100120.66;214286;1286;141741;-90
2023/09/20 18:27:55;;;;;;;15.30;4.60;;;;;;;18.30;86.46;100115.91;214767;1286;139111;-90
2023/09/20 18:32:55;;;;;;;15.50;4.20;;;;;;;18.22;86.68;100115.10;214358;1288;140908;-90
2023/09/20 18:37:56;;;;;;;15.60;4.90;;;;;;;18.11;87.50;100109.08;214686;1288;99368;-89
2023/09/20 18:42:59;;;;;;;13.70;4.00;;;;;;;18.01;87.37;100114.17;214210;1286;140832;-89
2023/09/20 18:48:00;;;;;;;17.10;5.20;;;;;;;17.93;88.36;100111.43;214432;1290;139095;-89
2023/09/20 18:53:01;;;;;;;14.90;4.00;;;;;;;17.82;88.66;100118.92;214117;1288;141829;-87
2023/09/20 18:58:01;;;;;;;10.30;3.60;;;;;;;17.71;89.46;100124.04;214794;1287;139164;-87
2023/09/20 19:03:03;;;;;;;12.50;3.60;;;;;;;17.57;90.15;100121.09;214296;1287;141009;-87
2023/09/20 19:08:06;;;;;;;8.70;3.90;;;;;;;17.47;90.72;100125.30;215213;1286;97943;-88
2023/09/20 19:13:08;;;;;;;9.40;3.70;;;;;;;17.35;91.16;100126.46;214511;1288;228857;-88
2023/09/20 19:18:11;;;;;;;7.90;3.50;;;;;;;17.25;91.74;100124.06;214518;1287;138746;-88
2023/09/20 19:23:13;;;;;;;8.90;3.40;;;;;;;17.15;92.19;100124.74;214667;1286;141060;-89
2023/09/20 19:28:13;;;;;;;11.40;3.20;;;;;;;17.06;92.68;100123.40;214674;1290;139407;-89
2023/09/20 19:33:14;;;;;;;7.60;3.30;;;;;;;16.98;93.15;100115.95;214237;1290;142291;-89
2023/09/20 19:38:15;;;;;;;9.20;3.10;;;;;;;16.91;93.10;100114.35;214806;1287;97971;-90
2023/09/20 19:43:15;;;;;;;10.00;3.70;;;;;;;16.84;93.83;100114.63;213996;1290;140714;-90
2023/09/20 19:48:16;;;;;;;11.20;3.50;;;;;;;16.75;93.43;100118.85;214658;1290;139162;-90
2023/09/20 19:53:17;;;;;;;8.70;3.10;;;;;;;16.70;94.30;100119.11;214313;1287;141031;-90
2023/09/20 19:58:17;;;;;;;6.70;3.50;;;;;;;16.64;94.20;100117.17;215013;1290;139400;-89
2023/09/20 20:03:18;;;;;;;8.30;3.50;;;;;;;16.59;93.75;100114.63;214446;1287;140637;-89
2023/09/20 20:08:20;;;;;;;8.00;3.70;;;;;;;16.56;94.04;100118.52;214637;1287;97998;-89
2023/09/20 20:13:23;;;;;;;9.20;3.10;;;;;;;16.51;94.40;100106.77;213964;1286;139685;-90
2023/09/20 20:18:25;;;;;;;7.60;3.20;;;;;;;16.44;94.43;100104.67;214530;1287;138885;-89
2023/09/20 20:23:26;;;;;;;8.60;4.10;;;;;;;16.39;94.36;100098.63;213979;1288;143535;-89
2023/09/20 20:28:30;;;;;;;9.70;3.50;;;;;;;16.36;95.11;100098.28;214592;1287;141119;-89
2023/09/20 20:33:31;;;;;;;10.60;3.70;;;;;;;16.30;96.00;100092.67;214172;1290;141006;-89
2023/09/20 20:38:32;;;;;;;8.30;3.80;;;;;;;16.22;95.81;100088.98;214878;1290;106281;-88
2023/09/20 20:43:33;;;;;;;7.80;2.80;;;;;;;16.17;96.09;100085.20;213835;1287;140002;-89
2023/09/20 20:48:34;;;;;;;9.20;4.10;;;;;;;16.10;96.07;100084.02;214616;1286;139191;-89
2023/09/20 20:53:34;;;;;;;9.00;3.60;;;;;;;16.05;96.30;100082.85;214129;1290;141488;-89
2023/09/20 20:58:37;;;;;;;8.30;3.30;;;;;;;16.00;96.32;100083.02;214625;1290;138655;-89
2023/09/20 21:03:41;;;;;;;7.20;3.40;;;;;;;15.96;96.69;100081.52;213964;1287;141324;-89
2023/09/20 21:08:47;;;;;;;10.00;3.30;;;;;;;15.90;97.00;100075.27;214552;1286;107355;-89
2023/09/20 21:13:47;;;;;;;8.50;3.50;;;;;;;15.85;96.87;100070.27;214509;1287;140931;-89
2023/09/20 21:18:50;;;;;;;12.80;4.10;;;;;;;15.81;97.36;100072.39;216572;1286;137488;-89
2023/09/20 21:23:51;;;;;;;8.70;4.20;;;;;;;15.77;97.19;100067.92;216443;1286;139451;-88
2023/09/20 21:28:55;;;;;;;10.70;4.00;;;;;;;15.75;97.31;100060.68;217097;1287;139382;-89
2023/09/20 21:33:59;;;;;;;8.90;4.10;;;;;;;15.74;97.84;100055.77;215716;1286;141664;-89
2023/09/20 21:38:59;;;;;;;11.90;5.00;;;;;;;15.72;97.65;100052.39;214794;1287;139423;-87
2023/09/20 21:44:00;;;;;;;11.10;4.60;;;;;;;15.70;97.93;100055.36;213813;1288;140082;-86
2023/09/20 21:49:01;;;;;;;9.80;4.90;;;;;;;15.67;97.73;100053.35;214378;1287;139032;-87
2023/09/20 21:54:02;;;;;;;12.00;5.70;;;;;;;15.63;97.62;100058.48;213953;1288;140568;-87
2023/09/20 21:59:02;;;;;;;13.50;5.30;;;;;;;15.61;98.04;100063.60;214808;1286;139511;-87
2023/09/20 22:04:04;;;;;;;11.40;4.90;;;;;;;15.57;98.80;100061.77;214174;1290;140608;-87
2023/09/20 22:09:09;;;;;;;14.80;5.30;;;;;;;15.54;99.07;100057.36;214925;1287;139160;-89
2023/09/20 22:14:10;;;;;;;11.60;5.00;;;;;;;15.51;99.06;100051.23;214684;1286;245527;-87
2023/09/20 22:19:13;;;;;;;12.70;4.60;;;;;;;15.46;98.64;100049.16;214661;1287;141616;-87
2023/09/20 22:24:16;;;;;;;11.40;5.30;;;;;;;15.42;98.46;100054.45;215269;1287;138768;-87
2023/09/20 22:29:16;;;;;;;10.30;4.80;;;;;;;15.37;98.86;100048.81;214530;1287;142757;-87
2023/09/20 22:34:17;;;;;;;13.30;5.20;;;;;;;15.32;98.15;100047.13;215021;1287;139276;-87
2023/09/20 22:39:19;;;;;;;10.20;4.40;;;;;;;15.27;98.32;100046.23;214363;1286;141731;-87
2023/09/20 22:44:21;;;;;;;10.00;4.90;;;;;;;15.21;98.94;100042.77;214832;1287;108595;-87
2023/09/20 22:49:22;;;;;;;11.00;5.00;;;;;;;15.16;99.35;100038.08;214299;1288;140660;-87
2023/09/20 22:54:22;;;;;;;11.70;4.60;;;;;;;15.09;99.03;100036.27;214898;1286;139043;-88
2023/09/20 22:59:28;;;;;;;10.20;4.90;;;;;;;15.04;99.08;100028.56;214399;1285;141828;-87
2023/09/20 23:04:31;;;;;;;15.20;5.60;;;;;;;15.00;98.92;100030.20;215669;1290;139079;-87
2023/09/20 23:09:36;;;;;;;10.20;5.20;;;;;;;14.96;99.40;100024.65;215296;1286;162253;-87
2023/09/20 23:14:37;;;;;;;13.20;5.60;;;;;;;14.94;99.45;100019.29;215865;1290;105333;-88
2023/09/20 23:19:38;;;;;;;12.20;5.90;;;;;;;14.92;99.71;100011.63;214490;1287;141553;-87